createdAt,value
2018-11-03T00:00:02.462Z,16.41
2018-11-03T00:01:05.198Z,16.41
2018-11-03T00:02:07.875Z,16.41
2018-11-03T00:03:10.535Z,16.38
2018-11-03T00:04:13.183Z,16.38
2018-11-03T00:05:16.433Z,16.38
2018-11-03T00:06:19.138Z,16.37
2018-11-03T00:07:21.798Z,16.37
2018-11-03T00:08:25.023Z,16.37
2018-11-03T00:09:27.681Z,16.36
2018-11-03T00:10:30.326Z,16.36
2018-11-03T00:11:32.986Z,16.34
2018-11-03T00:12:36.146Z,16.35
2018-11-03T00:13:38.806Z,16.35
2018-11-03T00:14:41.759Z,16.33
2018-11-03T00:15:44.450Z,16.34
2018-11-03T00:16:47.122Z,16.33
2018-11-03T00:17:49.766Z,16.32
2018-11-03T00:18:52.419Z,16.31
2018-11-03T00:19:55.450Z,16.33
2018-11-03T00:20:58.105Z,16.31
2018-11-03T00:22:00.771Z,16.31
2018-11-03T00:23:03.438Z,16.31
2018-11-03T00:24:06.102Z,16.31
2018-11-03T00:25:09.627Z,16.31
2018-11-03T00:26:12.288Z,16.29
2018-11-03T00:27:14.944Z,16.29
2018-11-03T00:28:17.621Z,16.29
2018-11-03T00:29:20.299Z,16.29
2018-11-03T00:30:23.240Z,16.29
2018-11-03T00:31:25.918Z,16.28
2018-11-03T00:32:28.586Z,16.28
2018-11-03T00:33:31.386Z,16.28
2018-11-03T00:34:34.026Z,16.28
2018-11-03T00:35:36.670Z,16.27
2018-11-03T00:36:39.302Z,16.28
2018-11-03T00:37:41.943Z,16.27
2018-11-03T00:38:44.620Z,16.26
2018-11-03T00:39:47.284Z,16.26
2018-11-03T00:40:50.214Z,16.25
2018-11-03T00:41:52.858Z,16.26
2018-11-03T00:42:55.542Z,16.26
2018-11-03T00:43:58.211Z,16.25
2018-11-03T00:45:00.906Z,16.25
2018-11-03T00:46:03.910Z,16.23
2018-11-03T00:47:06.591Z,16.24
2018-11-03T00:48:09.246Z,16.23
2018-11-03T00:49:11.901Z,16.22
2018-11-03T00:50:15.553Z,16.22
2018-11-03T00:51:18.486Z,16.22
2018-11-03T00:52:21.137Z,16.21
2018-11-03T00:53:23.783Z,16.22
2018-11-03T00:54:26.450Z,16.21
2018-11-03T00:55:29.106Z,16.20
2018-11-03T00:56:32.140Z,16.20
2018-11-03T00:57:34.853Z,16.21
2018-11-03T00:58:37.502Z,16.19
2018-11-03T00:59:40.150Z,16.19
2018-11-03T01:00:42.806Z,16.18
2018-11-03T01:01:45.454Z,16.18
2018-11-03T01:02:49.070Z,16.18
2018-11-03T01:03:51.739Z,16.18
2018-11-03T01:04:54.414Z,16.18
2018-11-03T01:05:57.090Z,16.18
2018-11-03T01:07:00.054Z,16.17
2018-11-03T01:08:02.857Z,16.17
2018-11-03T01:09:07.250Z,16.16
2018-11-03T01:10:10.108Z,16.16
2018-11-03T01:11:12.770Z,16.17
2018-11-03T01:12:15.542Z,16.16
2018-11-03T01:13:18.191Z,16.15
2018-11-03T01:14:20.838Z,16.16
2018-11-03T01:15:23.495Z,16.15
2018-11-03T01:16:26.146Z,15.55
2018-11-03T01:17:29.204Z,16.13
2018-11-03T01:18:31.854Z,16.14
2018-11-03T01:19:34.510Z,16.12
2018-11-03T01:20:37.170Z,16.14
2018-11-03T01:21:39.846Z,16.12
2018-11-03T01:22:42.946Z,16.11
2018-11-03T01:23:45.661Z,16.12
2018-11-03T01:24:48.275Z,16.11
2018-11-03T01:25:50.928Z,16.11
2018-11-03T01:26:53.606Z,16.09
2018-11-03T01:27:56.254Z,16.10
2018-11-03T01:28:58.891Z,16.10
2018-11-03T01:30:01.559Z,16.09
2018-11-03T01:31:04.268Z,16.09
2018-11-03T01:32:06.922Z,16.09
2018-11-03T01:33:09.942Z,16.08
2018-11-03T01:34:12.599Z,16.07
2018-11-03T01:35:15.452Z,16.08
2018-11-03T01:36:18.107Z,16.06
2018-11-03T01:37:20.750Z,16.06
2018-11-03T01:38:23.422Z,16.06
2018-11-03T01:39:26.096Z,16.04
2018-11-03T01:40:28.758Z,16.04
2018-11-03T01:41:31.410Z,16.04
2018-11-03T01:42:34.081Z,16.03
2018-11-03T01:43:37.037Z,16.02
2018-11-03T01:44:39.678Z,16.03
2018-11-03T01:45:42.316Z,16.02
2018-11-03T01:46:44.983Z,16.01
2018-11-03T01:47:47.618Z,16.01
2018-11-03T01:48:50.586Z,16.00
2018-11-03T01:49:53.273Z,16.00
2018-11-03T01:50:55.924Z,16.01
2018-11-03T01:51:58.562Z,16.00
2018-11-03T01:53:01.211Z,16.01
2018-11-03T01:54:04.242Z,16.00
2018-11-03T01:55:07.034Z,16.00
2018-11-03T01:56:09.706Z,15.99
2018-11-03T01:57:12.346Z,15.99
2018-11-03T01:58:15.019Z,15.99
2018-11-03T01:59:17.968Z,15.99
2018-11-03T02:00:20.622Z,15.98
2018-11-03T02:01:23.299Z,15.99
2018-11-03T02:02:25.956Z,15.98
2018-11-03T02:03:28.613Z,15.98
2018-11-03T02:04:31.650Z,15.98
2018-11-03T02:05:34.330Z,15.97
2018-11-03T02:06:36.988Z,15.98
2018-11-03T02:07:39.871Z,15.97
2018-11-03T02:08:42.523Z,15.97
2018-11-03T02:09:45.502Z,15.97
2018-11-03T02:10:48.159Z,15.97
2018-11-03T02:11:50.810Z,15.97
2018-11-03T02:12:53.442Z,15.97
2018-11-03T02:13:56.139Z,15.98
2018-11-03T02:14:59.154Z,15.98
2018-11-03T02:16:01.841Z,15.97
2018-11-03T02:17:05.158Z,15.98
2018-11-03T02:18:07.814Z,15.98
2018-11-03T02:19:10.494Z,15.98
2018-11-03T02:20:13.530Z,15.98
2018-11-03T02:21:16.195Z,15.98
2018-11-03T02:22:18.838Z,15.98
2018-11-03T02:23:21.502Z,15.97
2018-11-03T02:24:24.261Z,15.97
2018-11-03T02:25:27.271Z,15.97
2018-11-03T02:26:29.929Z,15.97
2018-11-03T02:27:32.610Z,15.98
2018-11-03T02:28:35.272Z,15.98
2018-11-03T02:29:37.913Z,15.98
2018-11-03T02:30:40.922Z,15.98
2018-11-03T02:31:43.570Z,15.98
2018-11-03T02:32:46.218Z,15.97
2018-11-03T02:33:48.866Z,15.97
2018-11-03T02:34:51.550Z,15.98
2018-11-03T02:35:54.502Z,15.99
2018-11-03T02:36:57.170Z,15.98
2018-11-03T02:37:59.822Z,15.99
2018-11-03T02:39:02.677Z,15.99
2018-11-03T02:40:06.663Z,15.98
2018-11-03T02:41:09.619Z,15.98
2018-11-03T02:42:12.250Z,15.98
2018-11-03T02:43:14.922Z,15.99
2018-11-03T02:44:17.578Z,15.99
2018-11-03T02:45:20.227Z,15.98
2018-11-03T02:46:23.158Z,15.99
2018-11-03T02:47:25.828Z,15.97
2018-11-03T02:48:28.487Z,15.98
2018-11-03T02:49:31.130Z,15.97
2018-11-03T02:50:33.778Z,15.97
2018-11-03T02:51:36.761Z,15.96
2018-11-03T02:52:39.511Z,15.96
2018-11-03T02:53:42.191Z,15.97
2018-11-03T02:54:44.841Z,15.96
2018-11-03T02:55:47.498Z,15.98
2018-11-03T02:56:50.430Z,15.96
2018-11-03T02:57:53.074Z,15.97
2018-11-03T02:58:55.722Z,15.96
2018-11-03T02:59:58.378Z,15.96
2018-11-03T03:01:01.030Z,15.95
2018-11-03T03:02:04.128Z,15.95
2018-11-03T03:03:06.782Z,15.96
2018-11-03T03:04:09.458Z,15.95
2018-11-03T03:05:12.109Z,15.95
2018-11-03T03:06:14.782Z,15.94
2018-11-03T03:07:17.427Z,15.95
2018-11-03T03:08:20.265Z,15.94
2018-11-03T03:09:22.926Z,15.93
2018-11-03T03:10:25.570Z,15.94
2018-11-03T03:11:28.262Z,15.94
2018-11-03T03:12:31.258Z,15.93
2018-11-03T03:13:33.890Z,15.93
2018-11-03T03:14:36.569Z,15.93
2018-11-03T03:15:39.217Z,15.94
2018-11-03T03:16:41.866Z,15.93
2018-11-03T03:17:44.790Z,15.93
2018-11-03T03:18:47.434Z,15.93
2018-11-03T03:19:50.271Z,15.93
2018-11-03T03:20:52.919Z,15.91
2018-11-03T03:21:55.558Z,15.92
2018-11-03T03:22:58.475Z,15.92
2018-11-03T03:24:01.135Z,15.92
2018-11-03T03:25:03.924Z,15.91
2018-11-03T03:26:07.326Z,15.92
2018-11-03T03:27:09.987Z,15.92
2018-11-03T03:28:12.918Z,15.91
2018-11-03T03:29:15.655Z,15.92
2018-11-03T03:30:18.262Z,15.92
2018-11-03T03:31:20.918Z,15.91
2018-11-03T03:32:23.561Z,15.92
2018-11-03T03:33:26.580Z,15.92
2018-11-03T03:34:29.241Z,15.92
2018-11-03T03:35:31.890Z,15.91
2018-11-03T03:36:34.526Z,15.90
2018-11-03T03:37:37.174Z,15.92
2018-11-03T03:38:40.123Z,15.92
2018-11-03T03:39:42.763Z,15.91
2018-11-03T03:40:45.414Z,15.91
2018-11-03T03:41:48.086Z,15.91
2018-11-03T03:42:50.778Z,15.91
2018-11-03T03:43:53.728Z,15.91
2018-11-03T03:44:56.369Z,15.90
2018-11-03T03:45:59.017Z,15.91
2018-11-03T03:47:01.694Z,15.89
2018-11-03T03:48:04.358Z,15.89
2018-11-03T03:49:07.282Z,15.88
2018-11-03T03:50:10.689Z,15.88
2018-11-03T03:51:13.349Z,15.88
2018-11-03T03:52:16.001Z,15.88
2018-11-03T03:53:18.629Z,15.89
2018-11-03T03:54:21.299Z,15.86
2018-11-03T03:55:23.983Z,15.87
2018-11-03T03:56:26.630Z,15.87
2018-11-03T03:57:29.274Z,15.86
2018-11-03T03:58:31.970Z,15.87
2018-11-03T03:59:34.970Z,15.86
2018-11-03T04:00:37.648Z,15.87
2018-11-03T04:01:40.326Z,15.85
2018-11-03T04:02:43.011Z,15.86
2018-11-03T04:03:45.713Z,15.84
2018-11-03T04:04:48.738Z,15.84
2018-11-03T04:05:51.434Z,15.84
2018-11-03T04:06:54.138Z,15.83
2018-11-03T04:07:56.831Z,15.83
2018-11-03T04:08:59.510Z,15.82
2018-11-03T04:10:02.602Z,15.82
2018-11-03T04:11:05.327Z,15.82
2018-11-03T04:12:08.031Z,15.83
2018-11-03T04:13:10.727Z,15.82
2018-11-03T04:14:13.403Z,15.81
2018-11-03T04:15:16.259Z,15.81
2018-11-03T04:16:19.194Z,15.81
2018-11-03T04:17:21.878Z,15.81
2018-11-03T04:18:24.556Z,15.81
2018-11-03T04:19:27.243Z,15.80
2018-11-03T04:20:29.955Z,15.80
2018-11-03T04:21:32.670Z,15.81
2018-11-03T04:22:35.671Z,15.79
2018-11-03T04:23:38.370Z,15.80
2018-11-03T04:24:41.054Z,15.79
2018-11-03T04:25:44.054Z,15.78
2018-11-03T04:26:46.750Z,15.78
2018-11-03T04:27:49.418Z,15.78
2018-11-03T04:28:52.089Z,15.77
2018-11-03T04:29:54.803Z,15.78
2018-11-03T04:30:57.803Z,15.76
2018-11-03T04:32:00.464Z,15.75
2018-11-03T04:33:03.178Z,15.76
2018-11-03T04:34:05.867Z,15.75
2018-11-03T04:35:09.139Z,15.75
2018-11-03T04:36:12.118Z,15.75
2018-11-03T04:37:14.803Z,15.74
2018-11-03T04:38:17.508Z,15.74
2018-11-03T04:39:20.190Z,15.73
2018-11-03T04:40:22.866Z,15.75
2018-11-03T04:41:26.133Z,15.73
2018-11-03T04:42:28.806Z,15.73
2018-11-03T04:43:31.487Z,15.73
2018-11-03T04:44:34.328Z,15.73
2018-11-03T04:45:37.079Z,15.73
2018-11-03T04:46:39.987Z,15.73
2018-11-03T04:47:42.685Z,15.73
2018-11-03T04:48:45.364Z,15.73
2018-11-03T04:49:48.043Z,15.72
2018-11-03T04:50:50.719Z,15.72
2018-11-03T04:51:53.658Z,15.72
2018-11-03T04:52:56.343Z,15.72
2018-11-03T04:53:59.083Z,15.72
2018-11-03T04:55:01.832Z,15.72
2018-11-03T04:56:04.587Z,15.71
2018-11-03T04:57:07.271Z,15.71
2018-11-03T04:58:09.949Z,15.71
2018-11-03T04:59:12.654Z,15.70
2018-11-03T05:00:15.374Z,15.71
2018-11-03T05:01:18.058Z,15.70
2018-11-03T05:02:21.044Z,15.69
2018-11-03T05:03:23.735Z,15.70
2018-11-03T05:04:26.426Z,15.69
2018-11-03T05:05:29.149Z,15.70
2018-11-03T05:06:31.829Z,15.70
2018-11-03T05:07:34.833Z,15.70
2018-11-03T05:08:37.526Z,15.70
2018-11-03T05:09:40.218Z,15.70
2018-11-03T05:10:42.899Z,15.69
2018-11-03T05:11:45.598Z,15.70
2018-11-03T05:12:48.569Z,15.70
2018-11-03T05:13:51.308Z,15.71
2018-11-03T05:14:54.074Z,15.71
2018-11-03T05:15:56.765Z,15.70
2018-11-03T05:16:59.438Z,15.70
2018-11-03T05:18:02.395Z,15.70
2018-11-03T05:19:05.263Z,15.71
2018-11-03T05:20:08.051Z,15.70
2018-11-03T05:21:10.887Z,15.70
2018-11-03T05:22:13.499Z,15.69
2018-11-03T05:23:16.187Z,15.70
2018-11-03T05:24:18.866Z,15.69
2018-11-03T05:25:21.589Z,15.69
2018-11-03T05:26:24.260Z,15.69
2018-11-03T05:27:26.950Z,15.68
2018-11-03T05:28:30.015Z,15.68
2018-11-03T05:29:32.786Z,15.68
2018-11-03T05:30:35.411Z,15.67
2018-11-03T05:31:38.215Z,15.67
2018-11-03T05:32:40.927Z,15.66
2018-11-03T05:33:43.975Z,15.66
2018-11-03T05:34:46.672Z,15.65
2018-11-03T05:35:49.350Z,15.66
2018-11-03T05:36:52.030Z,15.66
2018-11-03T05:37:54.714Z,15.65
2018-11-03T05:38:57.485Z,15.65
2018-11-03T05:40:00.067Z,15.65
2018-11-03T05:41:02.749Z,15.64
2018-11-03T05:42:05.956Z,15.65
2018-11-03T05:43:08.809Z,15.66
2018-11-03T05:44:12.383Z,15.65
2018-11-03T05:45:15.051Z,15.66
2018-11-03T05:46:17.748Z,15.66
2018-11-03T05:47:20.447Z,15.68
2018-11-03T05:48:23.119Z,15.68
2018-11-03T05:49:26.154Z,15.66
2018-11-03T05:50:28.867Z,15.68
2018-11-03T05:51:31.570Z,15.68
2018-11-03T05:52:34.255Z,15.67
2018-11-03T05:53:36.943Z,15.68
2018-11-03T05:54:39.899Z,15.68
2018-11-03T05:55:42.578Z,15.68
2018-11-03T05:56:45.267Z,15.68
2018-11-03T05:57:47.952Z,15.68
2018-11-03T05:58:50.659Z,15.70
2018-11-03T05:59:53.637Z,15.71
2018-11-03T06:00:56.318Z,15.71
2018-11-03T06:01:59.014Z,15.73
2018-11-03T06:03:01.713Z,15.75
2018-11-03T06:04:04.554Z,15.77
2018-11-03T06:05:07.267Z,15.78
2018-11-03T06:06:09.948Z,15.80
2018-11-03T06:07:12.650Z,15.81
2018-11-03T06:08:15.358Z,15.82
2018-11-03T06:09:18.099Z,15.82
2018-11-03T06:10:20.837Z,15.82
2018-11-03T06:11:23.529Z,15.83
2018-11-03T06:12:26.238Z,15.84
2018-11-03T06:13:28.950Z,15.84
2018-11-03T06:14:31.880Z,15.84
2018-11-03T06:15:34.970Z,15.85
2018-11-03T06:16:37.639Z,15.84
2018-11-03T06:17:40.343Z,15.85
2018-11-03T06:18:43.034Z,15.85
2018-11-03T06:19:45.713Z,15.85
2018-11-03T06:20:48.755Z,15.84
2018-11-03T06:21:51.475Z,15.82
2018-11-03T06:22:54.317Z,15.83
2018-11-03T06:23:56.990Z,15.82
2018-11-03T06:24:59.674Z,15.82
2018-11-03T06:26:02.734Z,15.82
2018-11-03T06:27:05.461Z,15.82
2018-11-03T06:28:08.319Z,15.82
2018-11-03T06:29:10.901Z,15.83
2018-11-03T06:30:13.588Z,15.83
2018-11-03T06:31:16.767Z,15.83
2018-11-03T06:32:19.491Z,15.83
2018-11-03T06:33:22.155Z,15.84
2018-11-03T06:34:24.930Z,15.83
2018-11-03T06:35:28.673Z,15.82
2018-11-03T06:36:31.623Z,15.83
2018-11-03T06:37:34.491Z,15.82
2018-11-03T06:38:37.218Z,15.82
2018-11-03T06:39:39.922Z,15.83
2018-11-03T06:40:42.623Z,15.82
2018-11-03T06:41:45.639Z,15.82
2018-11-03T06:42:48.349Z,15.81
2018-11-03T06:43:51.408Z,15.81
2018-11-03T06:44:54.138Z,15.83
2018-11-03T06:45:56.866Z,15.82
2018-11-03T06:46:59.843Z,15.82
2018-11-03T06:48:02.556Z,15.83
2018-11-03T06:49:10.854Z,15.82
2018-11-03T06:50:13.555Z,15.81
2018-11-03T06:51:16.239Z,15.81
2018-11-03T06:52:18.952Z,15.81
2018-11-03T06:53:21.551Z,15.81
2018-11-03T06:54:24.206Z,15.80
2018-11-03T06:55:26.888Z,15.79
2018-11-03T06:56:29.551Z,15.78
2018-11-03T06:57:32.547Z,15.79
2018-11-03T06:58:35.196Z,15.78
2018-11-03T06:59:37.854Z,15.77
2018-11-03T07:00:40.518Z,15.76
2018-11-03T07:01:43.190Z,15.77
2018-11-03T07:02:46.154Z,15.76
2018-11-03T07:03:48.818Z,15.76
2018-11-03T07:04:51.501Z,15.75
2018-11-03T07:05:54.202Z,15.73
2018-11-03T07:06:56.871Z,15.74
2018-11-03T07:07:59.822Z,15.73
2018-11-03T07:09:02.876Z,15.73
2018-11-03T07:10:06.462Z,15.73
2018-11-03T07:11:09.160Z,15.72
2018-11-03T07:12:11.865Z,15.71
2018-11-03T07:13:14.883Z,15.70
2018-11-03T07:14:17.455Z,15.70
2018-11-03T07:15:20.130Z,15.69
2018-11-03T07:16:22.870Z,15.68
2018-11-03T07:17:25.527Z,15.68
2018-11-03T07:18:28.334Z,15.68
2018-11-03T07:19:30.986Z,15.67
2018-11-03T07:20:33.654Z,15.67
2018-11-03T07:21:36.372Z,15.66
2018-11-03T07:22:39.033Z,15.65
2018-11-03T07:23:41.998Z,15.62
2018-11-03T07:24:44.675Z,15.65
2018-11-03T07:25:47.327Z,15.64
2018-11-03T07:26:50.018Z,15.63
2018-11-03T07:27:52.681Z,15.63
2018-11-03T07:28:55.631Z,15.63
2018-11-03T07:29:58.323Z,15.63
2018-11-03T07:31:01.019Z,15.46
2018-11-03T07:32:03.710Z,15.62
2018-11-03T07:33:06.413Z,15.61
2018-11-03T07:34:09.406Z,15.60
2018-11-03T07:35:12.074Z,15.60
2018-11-03T07:36:14.850Z,15.61
2018-11-03T07:37:17.508Z,15.61
2018-11-03T07:38:20.175Z,15.62
2018-11-03T07:39:23.154Z,15.58
2018-11-03T07:40:25.810Z,15.60
2018-11-03T07:41:28.561Z,15.61
2018-11-03T07:42:31.204Z,15.60
2018-11-03T07:43:33.831Z,15.60
2018-11-03T07:44:36.802Z,15.60
2018-11-03T07:45:39.470Z,15.60
2018-11-03T07:46:42.126Z,15.61
2018-11-03T07:47:45.118Z,15.60
2018-11-03T07:48:47.921Z,15.60
2018-11-03T07:49:50.866Z,15.60
2018-11-03T07:50:53.526Z,15.59
2018-11-03T07:51:56.178Z,15.59
2018-11-03T07:52:58.872Z,15.59
2018-11-03T07:54:01.578Z,15.59
2018-11-03T07:55:04.992Z,15.60
2018-11-03T07:56:07.714Z,15.60
2018-11-03T07:57:10.410Z,15.59
2018-11-03T07:58:13.084Z,15.59
2018-11-03T07:59:15.756Z,15.60
2018-11-03T08:00:18.820Z,15.57
2018-11-03T08:01:21.422Z,15.57
2018-11-03T08:02:24.095Z,15.58
2018-11-03T08:03:26.766Z,15.58
2018-11-03T08:04:29.443Z,15.58
2018-11-03T08:05:32.382Z,15.57
2018-11-03T08:06:35.050Z,15.58
2018-11-03T08:07:37.694Z,15.57
2018-11-03T08:08:40.443Z,15.58
2018-11-03T08:09:43.224Z,15.58
2018-11-03T08:10:46.186Z,15.58
2018-11-03T08:11:48.838Z,15.57
2018-11-03T08:12:51.520Z,15.58
2018-11-03T08:13:54.234Z,15.59
2018-11-03T08:14:56.924Z,15.59
2018-11-03T08:15:59.877Z,15.59
2018-11-03T08:17:02.542Z,15.60
2018-11-03T08:18:05.777Z,15.60
2018-11-03T08:19:08.394Z,15.61
2018-11-03T08:20:11.587Z,15.61
2018-11-03T08:21:14.267Z,15.60
2018-11-03T08:22:16.930Z,15.61
2018-11-03T08:23:19.631Z,15.60
2018-11-03T08:24:22.294Z,15.60
2018-11-03T08:25:24.963Z,15.57
2018-11-03T08:26:27.988Z,15.61
2018-11-03T08:27:30.653Z,15.60
2018-11-03T08:28:33.327Z,15.60
2018-11-03T08:29:36.006Z,15.62
2018-11-03T08:30:38.696Z,15.62
2018-11-03T08:31:41.758Z,15.61
2018-11-03T08:32:44.353Z,15.62
2018-11-03T08:33:47.135Z,15.61
2018-11-03T08:34:49.833Z,15.60
2018-11-03T08:35:52.534Z,15.60
2018-11-03T08:36:55.570Z,15.60
2018-11-03T08:37:58.266Z,15.61
2018-11-03T08:39:00.926Z,15.60
2018-11-03T08:40:04.722Z,15.60
2018-11-03T08:41:07.438Z,15.60
2018-11-03T08:42:10.446Z,15.59
2018-11-03T08:43:13.096Z,15.59
2018-11-03T08:44:15.760Z,15.60
2018-11-03T08:45:18.426Z,15.60
2018-11-03T08:46:21.098Z,15.60
2018-11-03T08:47:24.098Z,15.59
2018-11-03T08:48:26.789Z,15.60
2018-11-03T08:49:29.704Z,15.59
2018-11-03T08:50:32.363Z,15.59
2018-11-03T08:51:35.041Z,15.59
2018-11-03T08:52:38.030Z,15.59
2018-11-03T08:53:40.706Z,15.58
2018-11-03T08:54:43.366Z,15.58
2018-11-03T08:55:46.055Z,15.59
2018-11-03T08:56:48.726Z,15.58
2018-11-03T08:57:51.696Z,15.58
2018-11-03T08:58:54.362Z,15.58
2018-11-03T08:59:57.178Z,15.59
2018-11-03T09:00:59.923Z,15.59
2018-11-03T09:02:02.603Z,15.59
2018-11-03T09:03:05.649Z,15.60
2018-11-03T09:04:08.322Z,15.60
2018-11-03T09:05:11.654Z,15.61
2018-11-03T09:06:14.338Z,15.59
2018-11-03T09:07:17.013Z,15.61
2018-11-03T09:08:19.967Z,15.59
2018-11-03T09:09:22.695Z,15.62
2018-11-03T09:10:25.346Z,15.61
2018-11-03T09:11:28.006Z,15.61
2018-11-03T09:12:30.694Z,15.61
2018-11-03T09:13:33.618Z,15.61
2018-11-03T09:14:36.355Z,15.62
2018-11-03T09:15:39.034Z,15.60
2018-11-03T09:16:41.711Z,15.60
2018-11-03T09:17:44.624Z,15.61
2018-11-03T09:18:47.608Z,15.62
2018-11-03T09:19:50.331Z,15.61
2018-11-03T09:20:53.016Z,15.62
2018-11-03T09:21:55.829Z,15.61
2018-11-03T09:22:58.454Z,15.60
2018-11-03T09:24:01.395Z,15.62
2018-11-03T09:25:04.611Z,15.61
2018-11-03T09:26:07.286Z,15.61
2018-11-03T09:27:10.002Z,15.60
2018-11-03T09:28:12.727Z,15.60
2018-11-03T09:29:15.762Z,15.60
2018-11-03T09:30:19.020Z,15.59
2018-11-03T09:31:21.703Z,15.59
2018-11-03T09:32:24.374Z,15.58
2018-11-03T09:33:27.097Z,15.59
2018-11-03T09:34:29.797Z,15.58
2018-11-03T09:35:32.450Z,15.59
2018-11-03T09:36:35.122Z,15.58
2018-11-03T09:37:37.831Z,15.59
2018-11-03T09:38:40.874Z,15.59
2018-11-03T09:39:43.571Z,15.60
2018-11-03T09:40:46.238Z,15.60
2018-11-03T09:41:48.906Z,15.60
2018-11-03T09:42:51.579Z,15.60
2018-11-03T09:43:54.266Z,15.61
2018-11-03T09:44:57.246Z,15.61
2018-11-03T09:45:59.927Z,15.61
2018-11-03T09:47:02.603Z,15.62
2018-11-03T09:48:05.574Z,15.60
2018-11-03T09:49:08.258Z,15.60
2018-11-03T09:50:12.680Z,15.61
2018-11-03T09:51:15.577Z,15.60
2018-11-03T09:52:18.186Z,15.60
2018-11-03T09:53:20.863Z,15.61
2018-11-03T09:54:23.514Z,15.60
2018-11-03T09:55:26.470Z,15.59
2018-11-03T09:56:29.148Z,15.61
2018-11-03T09:57:31.838Z,15.60
2018-11-03T09:58:34.581Z,15.60
2018-11-03T09:59:37.254Z,15.60
2018-11-03T10:00:39.903Z,15.59
2018-11-03T10:01:42.567Z,15.59
2018-11-03T10:02:45.250Z,15.59
2018-11-03T10:03:47.990Z,15.60
2018-11-03T10:04:50.646Z,15.60
2018-11-03T10:05:53.582Z,15.61
2018-11-03T10:06:56.330Z,15.58
2018-11-03T10:07:59.130Z,15.59
2018-11-03T10:09:01.851Z,15.59
2018-11-03T10:10:05.127Z,15.60
2018-11-03T10:11:08.088Z,15.59
2018-11-03T10:12:10.770Z,15.58
2018-11-03T10:13:13.429Z,15.59
2018-11-03T10:14:16.187Z,15.58
2018-11-03T10:15:19.066Z,15.58
2018-11-03T10:16:22.098Z,15.58
2018-11-03T10:17:24.758Z,15.58
2018-11-03T10:18:27.432Z,15.57
2018-11-03T10:19:30.138Z,15.58
2018-11-03T10:20:32.838Z,15.57
2018-11-03T10:21:35.643Z,15.57
2018-11-03T10:22:38.404Z,15.57
2018-11-03T10:23:41.064Z,15.56
2018-11-03T10:24:43.738Z,15.58
2018-11-03T10:25:46.389Z,15.58
2018-11-03T10:26:49.395Z,15.57
2018-11-03T10:27:52.080Z,15.56
2018-11-03T10:28:54.770Z,15.57
2018-11-03T10:29:57.430Z,15.57
2018-11-03T10:31:00.146Z,15.56
2018-11-03T10:32:02.879Z,15.56
2018-11-03T10:33:05.610Z,15.57
2018-11-03T10:34:08.318Z,15.57
2018-11-03T10:35:11.676Z,15.56
2018-11-03T10:36:14.347Z,15.57
2018-11-03T10:37:17.324Z,15.59
2018-11-03T10:38:20.014Z,15.59
2018-11-03T10:39:22.678Z,15.59
2018-11-03T10:40:25.395Z,15.60
2018-11-03T10:41:28.056Z,15.61
2018-11-03T10:42:30.755Z,15.61
2018-11-03T10:43:33.460Z,15.61
2018-11-03T10:44:36.146Z,15.62
2018-11-03T10:45:38.822Z,15.62
2018-11-03T10:46:41.494Z,15.63
2018-11-03T10:47:44.791Z,15.62
2018-11-03T10:48:47.458Z,15.62
2018-11-03T10:49:50.135Z,15.63
2018-11-03T10:50:52.785Z,15.63
2018-11-03T10:51:55.473Z,15.64
2018-11-03T10:52:58.632Z,15.63
2018-11-03T10:54:01.314Z,15.63
2018-11-03T10:55:04.353Z,15.64
2018-11-03T10:56:07.018Z,15.63
2018-11-03T10:57:10.402Z,15.64
2018-11-03T10:58:13.338Z,15.63
2018-11-03T10:59:16.009Z,15.64
2018-11-03T11:00:25.130Z,15.64
2018-11-03T11:01:33.322Z,15.64
2018-11-03T11:02:41.466Z,15.64
2018-11-03T11:03:49.914Z,15.64
2018-11-03T11:04:58.034Z,15.64
2018-11-03T11:06:06.187Z,15.65
2018-11-03T11:09:20.467Z,15.67
2018-11-03T11:10:28.723Z,15.71
2018-11-03T11:11:36.811Z,15.70
2018-11-03T11:12:42.758Z,15.68
2018-11-03T11:13:45.888Z,15.66
2018-11-03T11:14:48.882Z,15.65
2018-11-03T11:15:53.089Z,15.64
2018-11-03T11:16:55.725Z,15.64
2018-11-03T11:17:58.659Z,15.63
2018-11-03T11:19:01.338Z,15.63
2018-11-03T11:20:04.246Z,15.62
2018-11-03T11:21:06.926Z,15.63
2018-11-03T11:22:09.571Z,15.61
2018-11-03T11:23:12.238Z,15.61
2018-11-03T11:24:15.081Z,15.60
2018-11-03T11:25:17.632Z,15.60
2018-11-03T11:26:20.308Z,15.61
2018-11-03T11:27:22.967Z,15.61
2018-11-03T11:28:25.647Z,15.60
2018-11-03T11:29:28.302Z,15.60
2018-11-03T11:30:36.910Z,15.60
2018-11-03T11:31:39.773Z,15.61
2018-11-03T11:32:42.294Z,15.60
2018-11-03T11:33:44.938Z,15.60
2018-11-03T11:34:47.628Z,15.60
2018-11-03T11:35:50.594Z,15.60
2018-11-03T11:36:53.270Z,15.61
2018-11-03T11:37:55.979Z,15.60
2018-11-03T11:38:58.651Z,15.60
2018-11-03T11:40:01.305Z,15.60
2018-11-03T11:41:04.470Z,15.60
2018-11-03T11:42:07.132Z,15.61
2018-11-03T11:43:10.672Z,15.61
2018-11-03T11:44:13.259Z,15.60
2018-11-03T11:45:15.947Z,15.60
2018-11-03T11:46:18.946Z,15.61
2018-11-03T11:47:21.595Z,15.61
2018-11-03T11:48:24.262Z,15.62
2018-11-03T11:49:26.926Z,15.61
2018-11-03T11:50:29.578Z,15.62
2018-11-03T11:51:32.526Z,15.62
2018-11-03T11:52:35.181Z,15.63
2018-11-03T11:53:37.874Z,15.64
2018-11-03T11:54:40.621Z,15.64
2018-11-03T11:55:43.302Z,15.65
2018-11-03T11:56:46.342Z,15.64
2018-11-03T11:57:49.297Z,15.65
2018-11-03T11:58:51.962Z,15.66
2018-11-03T11:59:54.603Z,15.67
2018-11-03T12:00:57.393Z,15.67
2018-11-03T12:02:00.349Z,15.68
2018-11-03T12:03:03.015Z,15.67
2018-11-03T12:04:05.947Z,15.68
2018-11-03T12:05:08.633Z,15.68
2018-11-03T12:06:11.287Z,15.69
2018-11-03T12:07:14.262Z,15.70
2018-11-03T12:08:16.924Z,15.69
2018-11-03T12:09:19.582Z,15.69
2018-11-03T12:10:22.267Z,15.69
2018-11-03T12:11:24.935Z,15.70
2018-11-03T12:12:27.873Z,15.70
2018-11-03T12:13:30.559Z,15.70
2018-11-03T12:14:33.194Z,15.71
2018-11-03T12:15:35.858Z,15.70
2018-11-03T12:16:38.534Z,15.70
2018-11-03T12:17:41.566Z,15.71
2018-11-03T12:18:44.267Z,15.71
2018-11-03T12:19:46.922Z,15.70
2018-11-03T12:20:49.575Z,15.70
2018-11-03T12:21:52.254Z,15.70
2018-11-03T12:22:54.929Z,15.70
2018-11-03T12:23:57.570Z,15.70
2018-11-03T12:25:00.318Z,15.71
2018-11-03T12:26:03.181Z,15.70
2018-11-03T12:27:05.866Z,15.70
2018-11-03T12:28:08.853Z,15.70
2018-11-03T12:29:11.754Z,15.71
2018-11-03T12:30:15.152Z,15.70
2018-11-03T12:31:17.835Z,15.70
2018-11-03T12:32:20.486Z,15.68
2018-11-03T12:33:23.434Z,15.70
2018-11-03T12:34:26.090Z,15.68
2018-11-03T12:35:28.758Z,15.69
2018-11-03T12:36:31.426Z,15.69
2018-11-03T12:37:34.070Z,15.68
2018-11-03T12:38:37.010Z,15.68
2018-11-03T12:39:39.674Z,15.68
2018-11-03T12:40:42.400Z,15.68
2018-11-03T12:41:45.030Z,15.67
2018-11-03T12:42:47.697Z,15.67
2018-11-03T12:43:50.634Z,15.68
2018-11-03T12:44:53.290Z,15.68
2018-11-03T12:45:55.994Z,15.68
2018-11-03T12:46:58.641Z,15.67
2018-11-03T12:48:01.442Z,15.68
2018-11-03T12:49:04.066Z,15.68
2018-11-03T12:50:08.324Z,15.68
2018-11-03T12:51:10.990Z,15.69
2018-11-03T12:52:13.673Z,15.68
2018-11-03T12:53:16.334Z,15.69
2018-11-03T12:54:19.070Z,15.67
2018-11-03T12:55:21.746Z,15.68
2018-11-03T12:56:24.403Z,15.68
2018-11-03T12:57:27.087Z,15.68
2018-11-03T12:58:29.738Z,15.68
2018-11-03T12:59:32.714Z,15.68
2018-11-03T13:00:35.370Z,15.67
2018-11-03T13:01:38.030Z,15.67
2018-11-03T13:02:41.506Z,15.67
2018-11-03T13:03:44.162Z,15.68
2018-11-03T13:04:47.187Z,15.67
2018-11-03T13:05:49.907Z,15.68
2018-11-03T13:06:52.611Z,15.67
2018-11-03T13:07:55.279Z,15.67
2018-11-03T13:08:58.043Z,15.67
2018-11-03T13:10:00.993Z,15.68
2018-11-03T13:11:03.654Z,15.69
2018-11-03T13:12:06.328Z,15.68
2018-11-03T13:13:09.002Z,15.67
2018-11-03T13:14:11.660Z,15.68
2018-11-03T13:15:14.697Z,15.69
2018-11-03T13:16:17.482Z,15.68
2018-11-03T13:17:20.162Z,15.68
2018-11-03T13:18:22.807Z,15.69
2018-11-03T13:19:25.459Z,15.68
2018-11-03T13:20:28.381Z,15.68
2018-11-03T13:21:31.062Z,15.69
2018-11-03T13:22:33.777Z,15.67
2018-11-03T13:23:36.413Z,15.68
2018-11-03T13:24:39.109Z,15.69
2018-11-03T13:25:41.895Z,15.69
2018-11-03T13:26:44.591Z,15.68
2018-11-03T13:27:47.258Z,15.68
2018-11-03T13:28:49.930Z,15.68
2018-11-03T13:29:52.562Z,15.69
2018-11-03T13:30:55.542Z,15.68